sensor_id;sensor_type;location;lat;lon;timestamp;P1;durP1;ratioP1;P2;durP2;ratioP2
7997;SDS011;4044;49.814;7.828;2024-03-17T00:02:21;5.53;;;4.63;;
7997;SDS011;4044;49.814;7.828;2024-03-17T00:04:47;4.87;;;4.40;;
7997;SDS011;4044;49.814;7.828;2024-03-17T00:07:13;5.67;;;4.77;;
7997;SDS011;4044;49.814;7.828;2024-03-17T00:09:42;4.80;;;4.40;;
7997;SDS011;4044;49.814;7.828;2024-03-17T00:12:07;4.60;;;4.07;;
7997;SDS011;4044;49.814;7.828;2024-03-17T00:14:34;5.57;;;4.50;;
7997;SDS011;4044;49.814;7.828;2024-03-17T00:17:00;5.00;;;4.37;;
7997;SDS011;4044;49.814;7.828;2024-03-17T00:19:26;6.03;;;4.53;;
7997;SDS011;4044;49.814;7.828;2024-03-17T00:21:52;6.17;;;4.40;;
7997;SDS011;4044;49.814;7.828;2024-03-17T00:24:18;5.63;;;5.00;;
7997;SDS011;4044;49.814;7.828;2024-03-17T00:26:44;6.20;;;5.03;;
7997;SDS011;4044;49.814;7.828;2024-03-17T00:29:10;4.27;;;3.93;;
7997;SDS011;4044;49.814;7.828;2024-03-17T00:31:36;7.13;;;4.40;;
7997;SDS011;4044;49.814;7.828;2024-03-17T00:34:02;4.67;;;4.27;;
7997;SDS011;4044;49.814;7.828;2024-03-17T00:36:27;5.50;;;4.20;;
7997;SDS011;4044;49.814;7.828;2024-03-17T00:38:53;5.63;;;4.40;;
7997;SDS011;4044;49.814;7.828;2024-03-17T00:41:19;4.50;;;4.03;;
7997;SDS011;4044;49.814;7.828;2024-03-17T00:43:46;7.13;;;5.27;;
7997;SDS011;4044;49.814;7.828;2024-03-17T00:46:11;5.60;;;5.10;;
7997;SDS011;4044;49.814;7.828;2024-03-17T00:48:37;5.03;;;4.60;;
7997;SDS011;4044;49.814;7.828;2024-03-17T00:51:02;5.40;;;4.90;;
7997;SDS011;4044;49.814;7.828;2024-03-17T00:53:28;5.13;;;4.60;;
7997;SDS011;4044;49.814;7.828;2024-03-17T00:55:55;5.03;;;4.53;;
7997;SDS011;4044;49.814;7.828;2024-03-17T00:58:25;5.50;;;4.93;;
7997;SDS011;4044;49.814;7.828;2024-03-17T01:00:50;5.33;;;4.83;;
7997;SDS011;4044;49.814;7.828;2024-03-17T01:03:16;5.47;;;4.97;;
7997;SDS011;4044;49.814;7.828;2024-03-17T01:05:42;5.50;;;4.67;;
7997;SDS011;4044;49.814;7.828;2024-03-17T01:08:09;4.93;;;4.53;;
7997;SDS011;4044;49.814;7.828;2024-03-17T01:10:39;7.67;;;4.90;;
7997;SDS011;4044;49.814;7.828;2024-03-17T01:13:08;4.57;;;4.17;;
7997;SDS011;4044;49.814;7.828;2024-03-17T01:15:38;6.07;;;4.77;;
7997;SDS011;4044;49.814;7.828;2024-03-17T01:18:04;5.90;;;5.03;;
7997;SDS011;4044;49.814;7.828;2024-03-17T01:20:31;5.77;;;5.27;;
7997;SDS011;4044;49.814;7.828;2024-03-17T01:22:57;5.10;;;4.60;;
7997;SDS011;4044;49.814;7.828;2024-03-17T01:25:22;7.03;;;5.20;;
7997;SDS011;4044;49.814;7.828;2024-03-17T01:27:50;5.70;;;5.07;;
7997;SDS011;4044;49.814;7.828;2024-03-17T01:30:16;7.43;;;5.33;;
7997;SDS011;4044;49.814;7.828;2024-03-17T01:32:42;5.93;;;5.33;;
7997;SDS011;4044;49.814;7.828;2024-03-17T01:35:07;5.63;;;5.13;;
7997;SDS011;4044;49.814;7.828;2024-03-17T01:37:33;5.53;;;5.03;;
7997;SDS011;4044;49.814;7.828;2024-03-17T01:39:59;9.10;;;6.13;;
7997;SDS011;4044;49.814;7.828;2024-03-17T01:42:24;5.87;;;5.37;;
7997;SDS011;4044;49.814;7.828;2024-03-17T01:44:50;5.87;;;5.37;;
7997;SDS011;4044;49.814;7.828;2024-03-17T01:47:16;6.17;;;5.57;;
7997;SDS011;4044;49.814;7.828;2024-03-17T01:49:43;5.80;;;5.30;;
7997;SDS011;4044;49.814;7.828;2024-03-17T01:52:12;5.73;;;5.10;;
7997;SDS011;4044;49.814;7.828;2024-03-17T01:54:39;6.97;;;5.80;;
7997;SDS011;4044;49.814;7.828;2024-03-17T01:57:05;7.20;;;5.73;;
7997;SDS011;4044;49.814;7.828;2024-03-17T01:59:31;6.37;;;5.73;;
7997;SDS011;4044;49.814;7.828;2024-03-17T02:01:57;7.20;;;6.00;;
7997;SDS011;4044;49.814;7.828;2024-03-17T02:04:22;6.20;;;5.63;;
7997;SDS011;4044;49.814;7.828;2024-03-17T02:06:48;6.70;;;5.60;;
7997;SDS011;4044;49.814;7.828;2024-03-17T02:09:13;5.80;;;5.00;;
7997;SDS011;4044;49.814;7.828;2024-03-17T02:11:39;6.07;;;5.47;;
7997;SDS011;4044;49.814;7.828;2024-03-17T02:14:04;5.40;;;4.90;;
7997;SDS011;4044;49.814;7.828;2024-03-17T02:16:32;5.80;;;5.37;;
7997;SDS011;4044;49.814;7.828;2024-03-17T02:18:58;6.93;;;5.80;;
7997;SDS011;4044;49.814;7.828;2024-03-17T02:21:24;5.60;;;5.10;;
7997;SDS011;4044;49.814;7.828;2024-03-17T02:23:52;6.73;;;5.83;;
7997;SDS011;4044;49.814;7.828;2024-03-17T02:26:19;5.70;;;5.20;;
7997;SDS011;4044;49.814;7.828;2024-03-17T02:28:45;6.43;;;5.80;;
7997;SDS011;4044;49.814;7.828;2024-03-17T02:31:12;6.57;;;5.70;;
7997;SDS011;4044;49.814;7.828;2024-03-17T02:33:38;7.23;;;6.00;;
7997;SDS011;4044;49.814;7.828;2024-03-17T02:36:04;6.10;;;5.50;;
7997;SDS011;4044;49.814;7.828;2024-03-17T02:38:34;6.40;;;5.90;;
7997;SDS011;4044;49.814;7.828;2024-03-17T02:41:18;6.73;;;5.97;;
7997;SDS011;4044;49.814;7.828;2024-03-17T02:43:44;6.73;;;6.13;;
7997;SDS011;4044;49.814;7.828;2024-03-17T02:46:11;7.20;;;6.20;;
7997;SDS011;4044;49.814;7.828;2024-03-17T02:48:38;6.50;;;5.90;;
7997;SDS011;4044;49.814;7.828;2024-03-17T02:51:12;8.23;;;5.97;;
7997;SDS011;4044;49.814;7.828;2024-03-17T02:53:42;9.03;;;6.60;;
7997;SDS011;4044;49.814;7.828;2024-03-17T02:56:11;7.17;;;6.47;;
7997;SDS011;4044;49.814;7.828;2024-03-17T02:58:38;6.77;;;6.23;;
7997;SDS011;4044;49.814;7.828;2024-03-17T03:01:04;6.50;;;5.83;;
7997;SDS011;4044;49.814;7.828;2024-03-17T03:03:31;6.47;;;5.60;;
7997;SDS011;4044;49.814;7.828;2024-03-17T03:05:57;7.63;;;5.73;;
7997;SDS011;4044;49.814;7.828;2024-03-17T03:08:23;6.57;;;5.97;;
7997;SDS011;4044;49.814;7.828;2024-03-17T03:10:49;8.20;;;6.23;;
7997;SDS011;4044;49.814;7.828;2024-03-17T03:13:14;9.20;;;6.23;;
7997;SDS011;4044;49.814;7.828;2024-03-17T03:15:40;7.93;;;7.13;;
7997;SDS011;4044;49.814;7.828;2024-03-17T03:18:05;7.20;;;6.53;;
7997;SDS011;4044;49.814;7.828;2024-03-17T03:20:31;6.37;;;5.63;;
7997;SDS011;4044;49.814;7.828;2024-03-17T03:22:56;6.50;;;5.90;;
7997;SDS011;4044;49.814;7.828;2024-03-17T03:25:22;6.93;;;5.93;;
7997;SDS011;4044;49.814;7.828;2024-03-17T03:27:47;7.53;;;6.53;;
7997;SDS011;4044;49.814;7.828;2024-03-17T03:30:14;8.00;;;5.77;;
7997;SDS011;4044;49.814;7.828;2024-03-17T03:32:40;7.90;;;6.70;;
7997;SDS011;4044;49.814;7.828;2024-03-17T03:35:07;9.80;;;7.10;;
7997;SDS011;4044;49.814;7.828;2024-03-17T03:37:33;8.33;;;7.37;;
7997;SDS011;4044;49.814;7.828;2024-03-17T03:39:58;7.57;;;6.87;;
7997;SDS011;4044;49.814;7.828;2024-03-17T03:42:24;7.70;;;6.90;;
7997;SDS011;4044;49.814;7.828;2024-03-17T03:44:49;9.47;;;7.20;;
7997;SDS011;4044;49.814;7.828;2024-03-17T03:47:15;7.90;;;7.10;;
7997;SDS011;4044;49.814;7.828;2024-03-17T03:49:40;6.30;;;5.70;;
7997;SDS011;4044;49.814;7.828;2024-03-17T03:52:06;6.07;;;5.27;;
7997;SDS011;4044;49.814;7.828;2024-03-17T03:54:32;6.03;;;5.40;;
7997;SDS011;4044;49.814;7.828;2024-03-17T03:56:58;7.00;;;6.00;;
7997;SDS011;4044;49.814;7.828;2024-03-17T03:59:24;6.77;;;6.10;;
7997;SDS011;4044;49.814;7.828;2024-03-17T04:01:50;6.47;;;5.80;;
7997;SDS011;4044;49.814;7.828;2024-03-17T04:04:15;6.67;;;6.07;;
7997;SDS011;4044;49.814;7.828;2024-03-17T04:06:41;6.80;;;6.10;;
7997;SDS011;4044;49.814;7.828;2024-03-17T04:09:06;6.57;;;5.90;;
7997;SDS011;4044;49.814;7.828;2024-03-17T04:11:34;6.13;;;5.37;;
7997;SDS011;4044;49.814;7.828;2024-03-17T04:13:59;5.93;;;5.43;;
7997;SDS011;4044;49.814;7.828;2024-03-17T04:16:26;5.97;;;4.93;;
7997;SDS011;4044;49.814;7.828;2024-03-17T04:18:51;6.37;;;5.77;;
7997;SDS011;4044;49.814;7.828;2024-03-17T04:21:17;7.13;;;6.43;;
7997;SDS011;4044;49.814;7.828;2024-03-17T04:23:43;5.90;;;5.40;;
7997;SDS011;4044;49.814;7.828;2024-03-17T04:26:08;7.07;;;6.10;;
7997;SDS011;4044;49.814;7.828;2024-03-17T04:28:34;6.50;;;5.80;;
7997;SDS011;4044;49.814;7.828;2024-03-17T04:31:04;6.60;;;5.87;;
7997;SDS011;4044;49.814;7.828;2024-03-17T04:33:31;5.80;;;5.30;;
7997;SDS011;4044;49.814;7.828;2024-03-17T04:35:57;6.40;;;5.73;;
7997;SDS011;4044;49.814;7.828;2024-03-17T04:38:22;7.07;;;6.10;;
7997;SDS011;4044;49.814;7.828;2024-03-17T04:40:49;6.20;;;5.60;;
7997;SDS011;4044;49.814;7.828;2024-03-17T04:43:15;6.07;;;5.47;;
7997;SDS011;4044;49.814;7.828;2024-03-17T04:45:41;6.03;;;5.43;;
7997;SDS011;4044;49.814;7.828;2024-03-17T04:48:06;6.40;;;5.80;;
7997;SDS011;4044;49.814;7.828;2024-03-17T04:50:32;6.50;;;5.73;;
7997;SDS011;4044;49.814;7.828;2024-03-17T04:52:58;7.90;;;5.70;;
7997;SDS011;4044;49.814;7.828;2024-03-17T04:55:24;6.20;;;5.60;;
7997;SDS011;4044;49.814;7.828;2024-03-17T04:57:50;7.43;;;5.63;;
7997;SDS011;4044;49.814;7.828;2024-03-17T05:00:15;6.13;;;5.43;;
7997;SDS011;4044;49.814;7.828;2024-03-17T05:02:43;6.30;;;5.80;;
7997;SDS011;4044;49.814;7.828;2024-03-17T05:05:09;6.30;;;5.70;;
7997;SDS011;4044;49.814;7.828;2024-03-17T05:07:35;8.37;;;5.73;;
7997;SDS011;4044;49.814;7.828;2024-03-17T05:10:01;7.53;;;6.13;;
7997;SDS011;4044;49.814;7.828;2024-03-17T05:12:27;6.13;;;5.63;;
7997;SDS011;4044;49.814;7.828;2024-03-17T05:14:53;6.97;;;5.67;;
7997;SDS011;4044;49.814;7.828;2024-03-17T05:17:19;6.40;;;5.53;;
7997;SDS011;4044;49.814;7.828;2024-03-17T05:19:44;5.80;;;5.30;;
7997;SDS011;4044;49.814;7.828;2024-03-17T05:22:10;6.57;;;5.80;;
7997;SDS011;4044;49.814;7.828;2024-03-17T05:24:35;6.30;;;5.70;;
7997;SDS011;4044;49.814;7.828;2024-03-17T05:27:01;5.97;;;5.47;;
7997;SDS011;4044;49.814;7.828;2024-03-17T05:29:27;6.93;;;5.63;;
7997;SDS011;4044;49.814;7.828;2024-03-17T05:31:53;5.90;;;5.30;;
7997;SDS011;4044;49.814;7.828;2024-03-17T05:34:18;5.80;;;5.20;;
7997;SDS011;4044;49.814;7.828;2024-03-17T05:36:44;6.40;;;5.40;;
7997;SDS011;4044;49.814;7.828;2024-03-17T05:39:09;11.97;;;6.80;;
7997;SDS011;4044;49.814;7.828;2024-03-17T05:41:35;6.60;;;5.87;;
7997;SDS011;4044;49.814;7.828;2024-03-17T05:44:01;6.87;;;5.90;;
7997;SDS011;4044;49.814;7.828;2024-03-17T05:46:28;90.80;;;11.23;;
7997;SDS011;4044;49.814;7.828;2024-03-17T05:48:54;9.03;;;6.63;;
7997;SDS011;4044;49.814;7.828;2024-03-17T05:51:21;6.60;;;6.00;;
7997;SDS011;4044;49.814;7.828;2024-03-17T05:53:47;7.90;;;6.40;;
7997;SDS011;4044;49.814;7.828;2024-03-17T05:56:13;10.20;;;6.60;;
7997;SDS011;4044;49.814;7.828;2024-03-17T05:58:40;7.10;;;6.50;;
7997;SDS011;4044;49.814;7.828;2024-03-17T06:01:06;10.13;;;5.97;;
7997;SDS011;4044;49.814;7.828;2024-03-17T06:03:32;10.03;;;6.30;;
7997;SDS011;4044;49.814;7.828;2024-03-17T06:06:00;21.43;;;7.13;;
7997;SDS011;4044;49.814;7.828;2024-03-17T06:08:27;6.57;;;5.97;;
7997;SDS011;4044;49.814;7.828;2024-03-17T06:10:52;6.83;;;6.23;;
7997;SDS011;4044;49.814;7.828;2024-03-17T06:13:18;6.37;;;5.73;;
7997;SDS011;4044;49.814;7.828;2024-03-17T06:15:44;6.40;;;5.70;;
7997;SDS011;4044;49.814;7.828;2024-03-17T06:18:12;6.53;;;5.63;;
7997;SDS011;4044;49.814;7.828;2024-03-17T06:20:40;6.20;;;5.57;;
7997;SDS011;4044;49.814;7.828;2024-03-17T06:23:10;6.40;;;5.40;;
7997;SDS011;4044;49.814;7.828;2024-03-17T06:25:43;5.70;;;5.20;;
7997;SDS011;4044;49.814;7.828;2024-03-17T06:28:14;5.63;;;5.07;;
7997;SDS011;4044;49.814;7.828;2024-03-17T06:30:43;5.33;;;4.50;;
7997;SDS011;4044;49.814;7.828;2024-03-17T06:33:13;6.03;;;5.20;;
7997;SDS011;4044;49.814;7.828;2024-03-17T06:35:40;5.97;;;5.37;;
7997;SDS011;4044;49.814;7.828;2024-03-17T06:38:06;5.97;;;5.47;;
7997;SDS011;4044;49.814;7.828;2024-03-17T06:40:35;8.17;;;6.10;;
7997;SDS011;4044;49.814;7.828;2024-03-17T06:43:04;7.10;;;6.40;;
7997;SDS011;4044;49.814;7.828;2024-03-17T06:45:30;8.83;;;6.80;;
7997;SDS011;4044;49.814;7.828;2024-03-17T06:47:56;6.90;;;6.20;;
7997;SDS011;4044;49.814;7.828;2024-03-17T06:50:21;6.90;;;6.30;;
7997;SDS011;4044;49.814;7.828;2024-03-17T06:52:47;7.20;;;6.40;;
7997;SDS011;4044;49.814;7.828;2024-03-17T06:55:13;6.97;;;5.97;;
7997;SDS011;4044;49.814;7.828;2024-03-17T06:57:41;6.77;;;5.40;;
7997;SDS011;4044;49.814;7.828;2024-03-17T07:00:08;7.43;;;6.23;;
7997;SDS011;4044;49.814;7.828;2024-03-17T07:02:38;7.07;;;6.00;;
7997;SDS011;4044;49.814;7.828;2024-03-17T07:05:11;6.43;;;5.83;;
7997;SDS011;4044;49.814;7.828;2024-03-17T07:07:39;5.93;;;5.43;;
7997;SDS011;4044;49.814;7.828;2024-03-17T07:10:05;6.00;;;5.37;;
7997;SDS011;4044;49.814;7.828;2024-03-17T07:12:31;6.23;;;5.50;;
7997;SDS011;4044;49.814;7.828;2024-03-17T07:14:56;6.70;;;5.77;;
7997;SDS011;4044;49.814;7.828;2024-03-17T07:17:21;6.07;;;5.47;;
7997;SDS011;4044;49.814;7.828;2024-03-17T07:19:47;6.50;;;5.90;;
7997;SDS011;4044;49.814;7.828;2024-03-17T07:22:14;9.17;;;6.13;;
7997;SDS011;4044;49.814;7.828;2024-03-17T07:24:39;5.57;;;5.03;;
7997;SDS011;4044;49.814;7.828;2024-03-17T07:27:05;6.27;;;5.70;;
7997;SDS011;4044;49.814;7.828;2024-03-17T07:29:33;6.33;;;5.27;;
7997;SDS011;4044;49.814;7.828;2024-03-17T07:31:59;5.90;;;5.40;;
7997;SDS011;4044;49.814;7.828;2024-03-17T07:34:24;5.27;;;4.77;;
7997;SDS011;4044;49.814;7.828;2024-03-17T07:36:50;7.33;;;4.70;;
7997;SDS011;4044;49.814;7.828;2024-03-17T07:39:15;5.50;;;4.97;;
7997;SDS011;4044;49.814;7.828;2024-03-17T07:41:41;4.23;;;3.93;;
7997;SDS011;4044;49.814;7.828;2024-03-17T07:44:06;4.83;;;4.43;;
7997;SDS011;4044;49.814;7.828;2024-03-17T07:46:32;4.90;;;4.40;;
7997;SDS011;4044;49.814;7.828;2024-03-17T07:48:57;4.57;;;4.00;;
7997;SDS011;4044;49.814;7.828;2024-03-17T07:51:23;4.20;;;3.80;;
7997;SDS011;4044;49.814;7.828;2024-03-17T07:53:49;5.53;;;3.93;;
7997;SDS011;4044;49.814;7.828;2024-03-17T07:56:15;4.03;;;3.73;;
7997;SDS011;4044;49.814;7.828;2024-03-17T07:58:44;4.50;;;3.80;;
7997;SDS011;4044;49.814;7.828;2024-03-17T08:01:11;4.53;;;4.03;;
7997;SDS011;4044;49.814;7.828;2024-03-17T08:03:38;5.33;;;4.10;;
7997;SDS011;4044;49.814;7.828;2024-03-17T08:06:06;4.80;;;4.40;;
7997;SDS011;4044;49.814;7.828;2024-03-17T08:08:33;4.83;;;4.23;;
7997;SDS011;4044;49.814;7.828;2024-03-17T08:10:59;3.77;;;3.47;;
7997;SDS011;4044;49.814;7.828;2024-03-17T08:13:28;3.90;;;3.50;;
7997;SDS011;4044;49.814;7.828;2024-03-17T08:15:59;5.30;;;3.97;;
7997;SDS011;4044;49.814;7.828;2024-03-17T08:18:30;4.13;;;3.70;;
7997;SDS011;4044;49.814;7.828;2024-03-17T08:20:57;4.43;;;4.03;;
7997;SDS011;4044;49.814;7.828;2024-03-17T08:23:22;4.93;;;4.47;;
7997;SDS011;4044;49.814;7.828;2024-03-17T08:28:21;4.40;;;3.93;;
7997;SDS011;4044;49.814;7.828;2024-03-17T08:30:53;5.50;;;3.87;;
7997;SDS011;4044;49.814;7.828;2024-03-17T08:33:20;4.83;;;4.33;;
7997;SDS011;4044;49.814;7.828;2024-03-17T08:36:00;4.73;;;4.33;;
7997;SDS011;4044;49.814;7.828;2024-03-17T08:38:27;4.77;;;4.20;;
7997;SDS011;4044;49.814;7.828;2024-03-17T08:40:54;4.67;;;4.00;;
7997;SDS011;4044;49.814;7.828;2024-03-17T08:43:21;5.33;;;4.20;;
7997;SDS011;4044;49.814;7.828;2024-03-17T08:45:57;5.50;;;4.47;;
7997;SDS011;4044;49.814;7.828;2024-03-17T08:48:25;5.73;;;4.20;;
7997;SDS011;4044;49.814;7.828;2024-03-17T08:50:54;4.97;;;4.37;;
7997;SDS011;4044;49.814;7.828;2024-03-17T08:53:20;4.40;;;4.00;;
7997;SDS011;4044;49.814;7.828;2024-03-17T08:55:46;4.60;;;4.13;;
7997;SDS011;4044;49.814;7.828;2024-03-17T08:58:13;8.97;;;4.43;;
7997;SDS011;4044;49.814;7.828;2024-03-17T09:00:38;5.10;;;4.47;;
7997;SDS011;4044;49.814;7.828;2024-03-17T09:03:05;4.47;;;4.10;;
7997;SDS011;4044;49.814;7.828;2024-03-17T09:05:35;5.00;;;4.50;;
7997;SDS011;4044;49.814;7.828;2024-03-17T09:08:01;4.40;;;4.00;;
7997;SDS011;4044;49.814;7.828;2024-03-17T09:10:26;4.67;;;4.27;;
7997;SDS011;4044;49.814;7.828;2024-03-17T09:12:52;4.60;;;4.20;;
7997;SDS011;4044;49.814;7.828;2024-03-17T09:15:17;6.03;;;4.77;;
7997;SDS011;4044;49.814;7.828;2024-03-17T09:17:43;4.73;;;4.33;;
7997;SDS011;4044;49.814;7.828;2024-03-17T09:20:09;4.93;;;4.40;;
7997;SDS011;4044;49.814;7.828;2024-03-17T09:22:46;5.07;;;4.67;;
7997;SDS011;4044;49.814;7.828;2024-03-17T09:25:11;5.20;;;4.80;;
7997;SDS011;4044;49.814;7.828;2024-03-17T09:27:37;5.03;;;4.63;;
7997;SDS011;4044;49.814;7.828;2024-03-17T09:30:03;5.87;;;4.70;;
7997;SDS011;4044;49.814;7.828;2024-03-17T09:32:34;4.70;;;4.30;;
7997;SDS011;4044;49.814;7.828;2024-03-17T09:35:00;5.27;;;4.50;;
7997;SDS011;4044;49.814;7.828;2024-03-17T09:37:26;5.47;;;4.87;;
7997;SDS011;4044;49.814;7.828;2024-03-17T09:39:53;6.40;;;5.43;;
7997;SDS011;4044;49.814;7.828;2024-03-17T09:42:22;5.67;;;5.17;;
7997;SDS011;4044;49.814;7.828;2024-03-17T09:44:48;5.53;;;5.00;;
7997;SDS011;4044;49.814;7.828;2024-03-17T09:47:19;7.10;;;4.63;;
7997;SDS011;4044;49.814;7.828;2024-03-17T09:49:48;5.60;;;5.07;;
7997;SDS011;4044;49.814;7.828;2024-03-17T09:52:20;5.77;;;4.77;;
7997;SDS011;4044;49.814;7.828;2024-03-17T09:54:48;6.40;;;5.50;;
7997;SDS011;4044;49.814;7.828;2024-03-17T09:57:25;5.20;;;4.80;;
7997;SDS011;4044;49.814;7.828;2024-03-17T09:59:55;5.27;;;4.43;;
7997;SDS011;4044;49.814;7.828;2024-03-17T10:02:21;6.17;;;5.67;;
7997;SDS011;4044;49.814;7.828;2024-03-17T10:04:47;6.10;;;5.10;;
7997;SDS011;4044;49.814;7.828;2024-03-17T10:07:12;5.77;;;4.93;;
7997;SDS011;4044;49.814;7.828;2024-03-17T10:09:40;6.07;;;5.50;;
7997;SDS011;4044;49.814;7.828;2024-03-17T10:12:20;6.30;;;5.70;;
7997;SDS011;4044;49.814;7.828;2024-03-17T10:14:59;5.70;;;5.20;;
7997;SDS011;4044;49.814;7.828;2024-03-17T10:17:29;6.20;;;5.60;;
7997;SDS011;4044;49.814;7.828;2024-03-17T10:20:11;5.97;;;5.30;;
7997;SDS011;4044;49.814;7.828;2024-03-17T10:22:41;5.97;;;5.30;;
7997;SDS011;4044;49.814;7.828;2024-03-17T10:25:21;6.63;;;5.57;;
7997;SDS011;4044;49.814;7.828;2024-03-17T10:27:48;6.20;;;5.60;;
7997;SDS011;4044;49.814;7.828;2024-03-17T10:30:17;6.07;;;5.57;;
7997;SDS011;4044;49.814;7.828;2024-03-17T10:32:56;5.85;;;5.32;;
7997;SDS011;4044;49.814;7.828;2024-03-17T10:37:59;6.22;;;5.57;;
7997;SDS011;4044;49.814;7.828;2024-03-17T10:40:26;6.35;;;5.85;;
7997;SDS011;4044;49.814;7.828;2024-03-17T10:42:52;7.20;;;5.70;;
7997;SDS011;4044;49.814;7.828;2024-03-17T10:45:17;6.10;;;4.85;;
7997;SDS011;4044;49.814;7.828;2024-03-17T10:47:46;5.93;;;5.43;;
7997;SDS011;4044;49.814;7.828;2024-03-17T10:50:16;6.18;;;5.60;;
7997;SDS011;4044;49.814;7.828;2024-03-17T10:52:47;6.30;;;5.68;;
7997;SDS011;4044;49.814;7.828;2024-03-17T10:55:23;5.80;;;5.30;;
7997;SDS011;4044;49.814;7.828;2024-03-17T10:57:53;6.13;;;4.95;;
7997;SDS011;4044;49.814;7.828;2024-03-17T11:00:23;5.57;;;4.47;;
7997;SDS011;4044;49.814;7.828;2024-03-17T11:02:50;5.70;;;5.10;;
7997;SDS011;4044;49.814;7.828;2024-03-17T11:07:48;5.35;;;4.88;;
7997;SDS011;4044;49.814;7.828;2024-03-17T11:10:22;4.82;;;4.40;;
7997;SDS011;4044;49.814;7.828;2024-03-17T11:12:49;4.88;;;4.47;;
7997;SDS011;4044;49.814;7.828;2024-03-17T11:20:14;5.00;;;4.57;;
7997;SDS011;4044;49.814;7.828;2024-03-17T11:22:51;5.07;;;4.60;;
7997;SDS011;4044;49.814;7.828;2024-03-17T11:27:58;4.65;;;4.35;;
7997;SDS011;4044;49.814;7.828;2024-03-17T11:41:37;6.35;;;5.28;;
7997;SDS011;4044;49.814;7.828;2024-03-17T11:44:23;6.20;;;5.60;;
7997;SDS011;4044;49.814;7.828;2024-03-17T11:47:00;7.18;;;6.50;;
7997;SDS011;4044;49.814;7.828;2024-03-17T11:52:02;6.88;;;6.13;;
7997;SDS011;4044;49.814;7.828;2024-03-17T11:54:30;6.93;;;6.25;;
7997;SDS011;4044;49.814;7.828;2024-03-17T11:57:00;6.50;;;6.00;;
7997;SDS011;4044;49.814;7.828;2024-03-17T11:59:28;8.10;;;7.03;;
7997;SDS011;4044;49.814;7.828;2024-03-17T12:01:54;7.75;;;6.90;;
7997;SDS011;4044;49.814;7.828;2024-03-17T12:04:20;7.10;;;6.40;;
7997;SDS011;4044;49.814;7.828;2024-03-17T12:09:27;8.35;;;6.43;;
7997;SDS011;4044;49.814;7.828;2024-03-17T12:12:01;6.97;;;6.28;;
7997;SDS011;4044;49.814;7.828;2024-03-17T12:14:29;7.38;;;6.50;;
7997;SDS011;4044;49.814;7.828;2024-03-17T12:16:55;7.38;;;6.78;;
7997;SDS011;4044;49.814;7.828;2024-03-17T12:19:25;7.32;;;6.65;;
7997;SDS011;4044;49.814;7.828;2024-03-17T12:21:52;7.25;;;6.60;;
7997;SDS011;4044;49.814;7.828;2024-03-17T12:24:21;8.73;;;6.32;;
7997;SDS011;4044;49.814;7.828;2024-03-17T12:26:49;8.05;;;7.35;;
7997;SDS011;4044;49.814;7.828;2024-03-17T12:29:32;7.88;;;7.05;;
7997;SDS011;4044;49.814;7.828;2024-03-17T12:32:04;7.47;;;6.70;;
7997;SDS011;4044;49.814;7.828;2024-03-17T12:34:33;7.70;;;6.90;;
7997;SDS011;4044;49.814;7.828;2024-03-17T12:36:59;8.32;;;7.53;;
7997;SDS011;4044;49.814;7.828;2024-03-17T12:44:30;8.60;;;7.70;;
7997;SDS011;4044;49.814;7.828;2024-03-17T12:46:57;8.38;;;7.68;;
7997;SDS011;4044;49.814;7.828;2024-03-17T12:49:25;8.77;;;7.97;;
7997;SDS011;4044;49.814;7.828;2024-03-17T12:51:52;8.95;;;8.05;;
7997;SDS011;4044;49.814;7.828;2024-03-17T12:54:21;9.02;;;8.23;;
7997;SDS011;4044;49.814;7.828;2024-03-17T12:56:48;8.90;;;8.10;;
7997;SDS011;4044;49.814;7.828;2024-03-17T12:59:36;8.60;;;7.90;;
7997;SDS011;4044;49.814;7.828;2024-03-17T13:02:24;8.95;;;8.00;;
7997;SDS011;4044;49.814;7.828;2024-03-17T13:07:40;9.55;;;8.52;;
7997;SDS011;4044;49.814;7.828;2024-03-17T13:10:06;9.60;;;8.70;;
7997;SDS011;4044;49.814;7.828;2024-03-17T13:12:33;9.63;;;8.82;;
7997;SDS011;4044;49.814;7.828;2024-03-17T13:14:59;9.45;;;8.60;;
7997;SDS011;4044;49.814;7.828;2024-03-17T13:17:25;9.35;;;8.48;;
7997;SDS011;4044;49.814;7.828;2024-03-17T13:19:50;9.93;;;8.98;;
7997;SDS011;4044;49.814;7.828;2024-03-17T13:22:16;9.65;;;8.75;;
7997;SDS011;4044;49.814;7.828;2024-03-17T13:24:41;9.55;;;8.65;;
7997;SDS011;4044;49.814;7.828;2024-03-17T13:27:07;9.52;;;8.63;;
7997;SDS011;4044;49.814;7.828;2024-03-17T13:29:33;10.20;;;9.20;;
7997;SDS011;4044;49.814;7.828;2024-03-17T13:32:01;10.40;;;9.40;;
7997;SDS011;4044;49.814;7.828;2024-03-17T13:34:27;10.02;;;9.05;;
7997;SDS011;4044;49.814;7.828;2024-03-17T13:36:53;9.70;;;8.90;;
7997;SDS011;4044;49.814;7.828;2024-03-17T13:39:19;9.77;;;8.93;;
7997;SDS011;4044;49.814;7.828;2024-03-17T13:41:46;12.93;;;9.43;;
7997;SDS011;4044;49.814;7.828;2024-03-17T13:44:14;10.82;;;9.73;;
7997;SDS011;4044;49.814;7.828;2024-03-17T13:46:40;10.20;;;8.73;;
7997;SDS011;4044;49.814;7.828;2024-03-17T13:49:09;10.82;;;9.40;;
7997;SDS011;4044;49.814;7.828;2024-03-17T13:51:35;10.10;;;9.07;;
7997;SDS011;4044;49.814;7.828;2024-03-17T13:54:00;10.10;;;9.20;;
7997;SDS011;4044;49.814;7.828;2024-03-17T13:56:27;9.65;;;8.75;;
7997;SDS011;4044;49.814;7.828;2024-03-17T13:58:53;9.82;;;8.90;;
7997;SDS011;4044;49.814;7.828;2024-03-17T14:01:18;9.73;;;8.77;;
7997;SDS011;4044;49.814;7.828;2024-03-17T14:03:44;9.98;;;8.95;;
7997;SDS011;4044;49.814;7.828;2024-03-17T14:06:10;10.63;;;9.57;;
7997;SDS011;4044;49.814;7.828;2024-03-17T14:08:36;9.85;;;8.98;;
7997;SDS011;4044;49.814;7.828;2024-03-17T14:11:02;10.52;;;9.45;;
7997;SDS011;4044;49.814;7.828;2024-03-17T14:13:29;10.13;;;9.13;;
7997;SDS011;4044;49.814;7.828;2024-03-17T14:15:57;10.15;;;9.15;;
7997;SDS011;4044;49.814;7.828;2024-03-17T14:18:23;10.40;;;9.40;;
7997;SDS011;4044;49.814;7.828;2024-03-17T14:20:49;9.48;;;8.55;;
7997;SDS011;4044;49.814;7.828;2024-03-17T14:23:15;9.73;;;8.73;;
7997;SDS011;4044;49.814;7.828;2024-03-17T14:25:41;8.70;;;7.90;;
7997;SDS011;4044;49.814;7.828;2024-03-17T14:28:07;8.68;;;7.88;;
7997;SDS011;4044;49.814;7.828;2024-03-17T14:30:34;9.35;;;8.55;;
7997;SDS011;4044;49.814;7.828;2024-03-17T14:32:59;9.60;;;8.65;;
7997;SDS011;4044;49.814;7.828;2024-03-17T14:35:25;9.77;;;8.82;;
7997;SDS011;4044;49.814;7.828;2024-03-17T14:37:52;9.68;;;8.68;;
7997;SDS011;4044;49.814;7.828;2024-03-17T14:40:18;9.32;;;8.52;;
7997;SDS011;4044;49.814;7.828;2024-03-17T14:42:53;9.20;;;8.50;;
7997;SDS011;4044;49.814;7.828;2024-03-17T14:45:20;9.25;;;8.35;;
7997;SDS011;4044;49.814;7.828;2024-03-17T14:47:48;9.60;;;8.43;;
7997;SDS011;4044;49.814;7.828;2024-03-17T14:50:14;8.85;;;8.05;;
7997;SDS011;4044;49.814;7.828;2024-03-17T14:52:41;9.02;;;8.15;;
7997;SDS011;4044;49.814;7.828;2024-03-17T14:55:10;8.80;;;8.00;;
7997;SDS011;4044;49.814;7.828;2024-03-17T14:57:37;8.48;;;7.78;;
7997;SDS011;4044;49.814;7.828;2024-03-17T15:00:07;8.10;;;7.40;;
7997;SDS011;4044;49.814;7.828;2024-03-17T15:02:41;7.82;;;7.13;;
7997;SDS011;4044;49.814;7.828;2024-03-17T15:05:11;8.75;;;7.95;;
7997;SDS011;4044;49.814;7.828;2024-03-17T15:07:37;8.70;;;7.90;;
7997;SDS011;4044;49.814;7.828;2024-03-17T15:10:04;8.88;;;8.18;;
7997;SDS011;4044;49.814;7.828;2024-03-17T15:12:30;9.55;;;8.55;;
7997;SDS011;4044;49.814;7.828;2024-03-17T15:14:56;9.32;;;8.52;;
7997;SDS011;4044;49.814;7.828;2024-03-17T15:17:21;9.10;;;8.25;;
7997;SDS011;4044;49.814;7.828;2024-03-17T15:19:47;9.50;;;8.45;;
7997;SDS011;4044;49.814;7.828;2024-03-17T15:22:13;8.63;;;7.78;;
7997;SDS011;4044;49.814;7.828;2024-03-17T15:24:38;10.30;;;9.30;;
7997;SDS011;4044;49.814;7.828;2024-03-17T15:27:04;9.45;;;8.38;;
7997;SDS011;4044;49.814;7.828;2024-03-17T15:29:30;9.50;;;8.60;;
7997;SDS011;4044;49.814;7.828;2024-03-17T15:31:56;9.07;;;8.18;;
7997;SDS011;4044;49.814;7.828;2024-03-17T15:34:24;9.13;;;8.23;;
7997;SDS011;4044;49.814;7.828;2024-03-17T15:36:50;9.32;;;8.38;;
7997;SDS011;4044;49.814;7.828;2024-03-17T15:39:15;7.78;;;7.05;;
7997;SDS011;4044;49.814;7.828;2024-03-17T15:41:41;8.68;;;7.97;;
7997;SDS011;4044;49.814;7.828;2024-03-17T15:44:06;9.60;;;8.80;;
7997;SDS011;4044;49.814;7.828;2024-03-17T15:46:32;9.40;;;8.50;;
7997;SDS011;4044;49.814;7.828;2024-03-17T15:48:58;9.82;;;7.82;;
7997;SDS011;4044;49.814;7.828;2024-03-17T15:51:24;9.82;;;8.93;;
7997;SDS011;4044;49.814;7.828;2024-03-17T15:53:50;9.18;;;8.20;;
7997;SDS011;4044;49.814;7.828;2024-03-17T15:56:16;8.88;;;8.07;;